Airfield :
LOGIN :

Register | Disclaimer

   EN    FR    IT 

 










Legend :    VFR   Marginal VFR   IFR   Intensive IFR   Very Intensive IFR
Visi :
Ceiling :
>= 8 km
>= 3000ft
5 to 8 km
1000 to 3000 ft
1500m to 5 km
500 to 1000 ft
800 to 1500m
200 to 500 ft
< 800m
< 200 ft
Symbols :   Thunderstorms  Fog  Heavy snow  Heavy precipitations  Wind > 20 kt
SIGMETs :     Misc.  Thunderstorms  Icing  Turbulence  Mountain Waves  Volcanic Ashes







- Airport Elevation : 45 ft
- IATA code : CEG
- Download approach charts


EGNR - Hawarden Chester

CURRENT METAR :
  • 131620Z 15006KT 9999 SCT025 SCT047 10/07 Q1019

EXPIRED METARs :
  • 131550Z 17006KT 9999 SCT025 SCT047 11/07 Q1020
  • 131520Z 18006KT 9999 FEW015 SCT030 11/07 Q1019
  • 131450Z 20005KT 9999 FEW015 SCT040 10/07 Q1019
  • 131420Z 22008KT 9999 VCSH FEW012 SCT035 11/08 Q1019
  • 131350Z 24013KT 9000 VCSH SCT035 BKN043 12/07 Q1019

TAF TAF EGNR
Valid from the 13 at 15:00 until the 13 at 21:00 UTC


131356Z 1315/1321 23010KT 9999 SCT040
BECMG 1315/1318 14007KT
No reported NOTAMs for that airfield.



MET'MAP, your aeronautical weather chart ! - Copyright ORBIFLY December 2007 - Disclaimer

ORBIFLY MET'MAP TEAM :

Programming & Development : Alexandra Zaïnal
Concept & Development : Baudouin d'Aumeries
Co-Development & Prog : Marc-Olivier Méhu
Technical & hardware support : Manuel Goepfert

Contact : metmap@orbifly.com




SOURCES & CREDITS :

   NOAA